Time;durP1;ratioP1;P1;durP2;ratioP2;P2;SDS_P1;SDS_P2;PMS_P1;PMS_P2;Temp;Humidity;BMP_temperature;BMP_pressure;BME280_temperature;BME280_humidity;BME280_pressure;Samples;Min_cycle;Max_cycle;Signal;HPM_P1;HPM_P2
2022/11/24 21:33:02;;;;;;;38.98;23.47;;;;;;;6.39;92.26;100383.67;1754168;81;21393;-88
2022/11/24 21:35:43;;;;;;;32.28;21.68;;;;;;;6.39;91.92;100376.33;1740962;82;21041;-84
2022/11/24 21:38:16;;;;;;;36.17;23.90;;;;;;;6.38;91.78;100372.02;1710142;82;21054;-88
2022/11/24 21:40:44;;;;;;;33.53;22.70;;;;;;;6.36;91.76;100369.97;1721455;82;20963;-88
2022/11/24 21:43:11;;;;;;;35.55;23.62;;;;;;;6.34;91.61;100367.90;1725760;82;20909;-87
2022/11/24 21:45:43;;;;;;;34.95;23.32;;;;;;;6.33;91.59;100372.23;1717271;82;21420;-89
2022/11/24 21:48:11;;;;;;;36.53;23.87;;;;;;;6.35;91.56;100381.29;1718129;82;20972;-88
2022/11/24 21:50:40;;;;;;;37.33;21.93;;;;;;;6.35;91.44;100386.03;1710979;82;20849;-88
2022/11/24 21:53:08;;;;;;;35.73;23.20;;;;;;;6.36;91.38;100389.05;1722369;82;20928;-88
2022/11/24 21:55:35;;;;;;;38.25;22.37;;;;;;;6.37;91.28;100389.41;1731580;82;21871;-91
2022/11/24 21:58:07;;;;;;;37.08;24.45;;;;;;;6.36;91.23;100385.14;1734757;82;21130;-89
2022/11/24 22:00:33;;;;;;;37.55;22.77;;;;;;;6.34;91.33;100385.66;1734921;82;20964;-87
2022/11/24 22:03:11;;;;;;;35.03;23.40;;;;;;;6.35;91.40;100388.64;1722770;82;21440;-90
2022/11/24 22:05:34;;;;;;;34.45;23.47;;;;;;;6.35;91.42;100383.43;1708334;82;20943;-89
2022/11/24 22:08:02;;;;;;;36.23;23.38;;;;;;;6.38;91.43;100381.14;1728529;82;21411;-89
2022/11/24 22:10:29;;;;;;;35.20;23.75;;;;;;;6.38;91.30;100378.53;1727574;82;20901;-88
2022/11/24 22:12:57;;;;;;;38.00;23.55;;;;;;;6.35;91.22;100383.43;1719527;82;20869;-87
2022/11/24 22:15:23;;;;;;;34.20;22.70;;;;;;;6.35;91.34;100371.71;1729409;82;21012;-89
2022/11/24 22:17:50;;;;;;;33.80;23.15;;;;;;;6.37;91.39;100370.34;1727953;82;21378;-89
2022/11/24 22:20:17;;;;;;;36.60;24.77;;;;;;;6.37;91.31;100372.48;1721286;82;21135;-88
2022/11/24 22:22:44;;;;;;;40.33;24.63;;;;;;;6.37;91.22;100372.48;1730887;82;20949;-88
2022/11/24 22:25:11;;;;;;;35.23;23.38;;;;;;;6.36;91.14;100369.52;1730396;82;21583;-86
2022/11/24 22:27:38;;;;;;;34.27;22.52;;;;;;;6.36;91.15;100362.16;1730989;82;20909;-88
2022/11/24 22:30:06;;;;;;;35.10;24.23;;;;;;;6.35;91.00;100353.48;1718242;82;20984;-88
2022/11/24 22:32:35;;;;;;;33.73;22.95;;;;;;;6.31;90.76;100353.70;1730706;82;21126;-89
2022/11/24 22:35:04;;;;;;;34.50;21.35;;;;;;;6.27;90.88;100364.73;1730500;82;21430;-86
2022/11/24 22:37:31;;;;;;;33.28;22.17;;;;;;;6.22;90.81;100354.53;1724148;82;21032;-86
2022/11/24 22:39:58;;;;;;;34.78;22.25;;;;;;;6.21;91.02;100345.48;1730027;82;20916;-88
2022/11/24 22:42:25;;;;;;;33.30;22.93;;;;;;;6.22;91.13;100354.97;1714156;82;20937;-89
2022/11/24 22:44:53;;;;;;;34.13;21.85;;;;;;;6.24;90.95;100354.44;1712629;82;21154;-88
2022/11/24 22:47:19;;;;;;;37.95;24.65;;;;;;;6.23;90.79;100367.09;1717036;82;20925;-88
2022/11/24 22:49:45;;;;;;;35.95;24.10;;;;;;;6.23;90.89;100364.48;1726443;82;20944;-88
2022/11/24 22:52:13;;;;;;;36.25;24.07;;;;;;;6.24;90.71;100363.55;1726942;82;20894;-87
2022/11/24 22:54:40;;;;;;;33.83;22.20;;;;;;;6.22;90.51;100353.23;1732903;82;21102;-86
2022/11/24 22:57:07;;;;;;;39.10;25.32;;;;;;;6.20;90.52;100356.36;1716268;82;21174;-88
2022/11/24 22:59:35;;;;;;;35.70;23.42;;;;;;;6.18;90.42;100363.39;1728031;82;20988;-87
2022/11/24 23:02:01;;;;;;;33.55;23.07;;;;;;;6.17;90.35;100360.39;1716319;82;21485;-88
2022/11/24 23:04:28;;;;;;;33.75;22.20;;;;;;;6.16;90.41;100368.29;1732799;82;21019;-88
2022/11/24 23:06:54;;;;;;;36.33;24.32;;;;;;;6.15;90.33;100367.42;1732289;82;21543;-88
2022/11/24 23:09:21;;;;;;;35.45;24.57;;;;;;;6.16;90.58;100374.80;1728417;82;21161;-87
2022/11/24 23:11:48;;;;;;;37.60;26.23;;;;;;;6.17;90.48;100368.66;1711903;82;20904;-86
2022/11/24 23:14:15;;;;;;;35.65;23.67;;;;;;;6.19;90.41;100358.56;1725429;82;20984;-88
2022/11/24 23:16:42;;;;;;;36.03;23.70;;;;;;;6.20;90.19;100363.30;1713313;82;20896;-87
2022/11/24 23:19:08;;;;;;;40.50;23.45;;;;;;;6.17;89.98;100359.09;1716513;82;20972;-88
2022/11/24 23:21:39;;;;;;;42.17;26.52;;;;;;;6.14;89.88;100364.45;1732660;82;21892;-90
2022/11/24 23:24:06;;;;;;;34.88;24.77;;;;;;;6.11;89.83;100354.16;1716167;82;20928;-88
2022/11/24 23:26:36;;;;;;;35.90;26.65;;;;;;;6.09;89.89;100353.41;1708327;82;20940;-87
2022/11/24 23:29:05;;;;;;;38.98;25.15;;;;;;;6.08;90.02;100346.50;1724382;82;21106;-87
2022/11/24 23:31:38;;;;;;;39.08;25.82;;;;;;;6.09;90.06;100346.03;1724780;82;21000;-86
2022/11/24 23:34:06;;;;;;;41.25;24.60;;;;;;;6.09;90.10;100353.41;1716644;82;21931;-87
2022/11/24 23:36:32;;;;;;;36.03;25.75;;;;;;;6.11;89.94;100360.66;1726581;82;20897;-87
2022/11/24 23:39:07;;;;;;;36.73;24.10;;;;;;;6.10;89.76;100364.66;1719546;82;20904;-86
2022/11/24 23:41:35;;;;;;;36.10;24.27;;;;;;;6.10;89.67;100360.75;1719314;82;21394;-88
2022/11/24 23:44:02;;;;;;;34.18;22.07;;;;;;;6.11;89.70;100362.42;1724156;82;20940;-86
2022/11/24 23:46:30;;;;;;;35.13;22.62;;;;;;;6.10;89.47;100358.15;1724667;82;20861;-89
2022/11/24 23:48:56;;;;;;;32.13;21.30;;;;;;;6.06;89.33;100356.13;1706761;82;20948;-86
2022/11/24 23:51:29;;;;;;;32.38;22.30;;;;;;;6.04;89.35;100368.38;1717980;82;21552;-86
2022/11/24 23:53:56;;;;;;;35.08;21.45;;;;;;;6.00;89.22;100361.17;1724454;82;20888;-88
2022/11/24 23:56:26;;;;;;;29.02;20.77;;;;;;;5.97;89.30;100366.96;1729805;82;20960;-87
2022/11/24 23:58:53;;;;;;;28.92;19.90;;;;;;;5.95;89.42;100367.48;1719916;82;21178;-88
